Time;durP1;ratioP1;P1;durP2;ratioP2;P2;SDS_P1;SDS_P2;PMS_P1;PMS_P2;Temp;Humidity;BMP_temperature;BMP_pressure;BME280_temperature;BME280_humidity;BME280_pressure;Samples;Min_cycle;Max_cycle;Signal;HPM_P1;HPM_P2
2022/11/22 00:00:47;;;;;;;11.68;5.60;;;;;;;0.04;100.00;99409.97;6201259;28;20051;-72
2022/11/22 00:03:49;;;;;;;12.18;4.65;;;;;;;0.07;100.00;99411.63;6201190;28;20050;-72
2022/11/22 00:06:50;;;;;;;11.25;4.88;;;;;;;0.08;100.00;99410.72;6201428;28;20046;-72
2022/11/22 00:09:52;;;;;;;11.32;5.25;;;;;;;0.00;100.00;99418.72;6200936;28;20054;-72
2022/11/22 00:12:55;;;;;;;9.45;4.93;;;;;;;-0.02;100.00;99411.00;6201248;28;20569;-72
2022/11/22 00:16:00;;;;;;;20.23;6.05;;;;;;;0.04;100.00;99407.38;6200636;28;20062;-72
2022/11/22 00:19:01;;;;;;;10.25;5.50;;;;;;;0.06;100.00;99395.28;6201151;28;20054;-72
2022/11/22 00:22:03;;;;;;;13.07;5.32;;;;;;;0.12;100.00;99396.81;6200487;28;20421;-72
2022/11/22 00:25:05;;;;;;;8.85;5.05;;;;;;;0.09;100.00;99402.06;6200798;28;20050;-72
2022/11/22 00:28:08;;;;;;;13.93;6.22;;;;;;;0.01;100.00;99389.41;6200644;28;20050;-72
2022/11/22 00:31:09;;;;;;;15.55;6.45;;;;;;;0.11;100.00;99384.81;6200628;28;20053;-72
2022/11/22 00:34:10;;;;;;;13.50;6.10;;;;;;;0.13;100.00;99386.41;6200255;28;20092;-72
2022/11/22 00:37:12;;;;;;;11.18;5.65;;;;;;;0.15;100.00;99373.47;6200836;28;20064;-72
2022/11/22 00:40:13;;;;;;;13.75;6.70;;;;;;;0.11;100.00;99372.72;6200258;28;20050;-72
2022/11/22 00:43:16;;;;;;;11.38;5.60;;;;;;;0.18;100.00;99370.78;6200564;28;20053;-73
2022/11/22 00:46:17;;;;;;;16.35;7.45;;;;;;;0.12;100.00;99358.06;6199962;28;20050;-73
2022/11/22 00:49:19;;;;;;;16.02;6.65;;;;;;;0.17;100.00;99372.50;6200559;28;20046;-72
2022/11/22 00:52:20;;;;;;;16.35;6.45;;;;;;;0.23;100.00;99374.91;6199795;28;20414;-72
2022/11/22 00:55:22;;;;;;;18.45;7.15;;;;;;;0.21;100.00;99366.34;6199777;28;20054;-72
2022/11/22 00:58:24;;;;;;;13.82;6.50;;;;;;;0.18;100.00;99371.66;6200535;28;20058;-72
2022/11/22 01:01:26;;;;;;;14.18;6.03;;;;;;;0.24;100.00;99355.94;6199833;28;20050;-72
2022/11/22 01:04:27;;;;;;;22.38;7.18;;;;;;;0.30;100.00;99362.63;6199121;28;20422;-72
2022/11/22 01:07:29;;;;;;;19.75;7.88;;;;;;;0.31;100.00;99353.13;6199881;28;20412;-72
2022/11/22 01:10:30;;;;;;;18.55;7.80;;;;;;;0.33;100.00;99347.03;6199622;28;20053;-73
2022/11/22 01:13:34;;;;;;;17.42;7.03;;;;;;;0.38;100.00;99358.03;6199907;28;20238;-72
2022/11/22 01:16:35;;;;;;;17.23;7.28;;;;;;;0.36;100.00;99356.41;6199248;28;20057;-72
2022/11/22 01:19:37;;;;;;;17.08;7.80;;;;;;;0.39;100.00;99364.06;6199571;28;20047;-73
2022/11/22 01:22:38;;;;;;;20.30;7.57;;;;;;;0.36;100.00;99359.81;6192219;28;20054;-72
2022/11/22 01:25:43;;;;;;;16.38;7.95;;;;;;;0.40;100.00;99351.06;6195952;28;20058;-73
2022/11/22 01:28:46;;;;;;;25.33;7.95;;;;;;;0.37;100.00;99347.78;6199310;28;20054;-72
2022/11/22 01:31:47;;;;;;;16.75;6.47;;;;;;;0.39;100.00;99354.56;6198812;28;20422;-72
2022/11/22 01:34:48;;;;;;;32.92;10.77;;;;;;;0.34;100.00;99353.03;6198745;28;20061;-72
2022/11/22 01:37:50;;;;;;;20.63;7.90;;;;;;;0.46;100.00;99352.63;6199465;28;20046;-72
2022/11/22 01:40:52;;;;;;;21.90;8.30;;;;;;;0.48;100.00;99363.75;6198888;28;20498;-72
2022/11/22 01:43:54;;;;;;;25.40;8.35;;;;;;;0.50;100.00;99356.78;6198798;28;20553;-72
2022/11/22 01:46:59;;;;;;;23.15;7.93;;;;;;;0.46;100.00;99347.44;6198832;28;20072;-72
2022/11/22 01:50:05;;;;;;;21.00;8.23;;;;;;;0.43;100.00;99347.56;6198345;28;20423;-72
2022/11/22 01:53:13;;;;;;;21.70;8.93;;;;;;;0.43;100.00;99353.56;6199039;28;20391;-72
2022/11/22 01:56:16;;;;;;;25.60;8.43;;;;;;;0.44;100.00;99350.06;6198367;28;20046;-72
2022/11/22 01:59:22;;;;;;;19.63;7.78;;;;;;;0.42;100.00;99335.53;6198738;28;20060;-72
2022/11/22 02:02:24;;;;;;;19.50;8.55;;;;;;;0.44;100.00;99331.97;6198281;28;20050;-72
2022/11/22 02:05:29;;;;;;;28.58;10.77;;;;;;;0.37;100.00;99327.94;6198111;28;20050;-72
2022/11/22 02:08:35;;;;;;;23.13;8.73;;;;;;;0.42;100.00;99328.63;6198473;28;20057;-72
2022/11/22 02:11:40;;;;;;;30.40;10.23;;;;;;;0.45;100.00;99332.81;6198238;28;20046;-72
2022/11/22 02:14:43;;;;;;;20.42;8.40;;;;;;;0.50;100.00;99329.19;6197937;28;20054;-72
2022/11/22 02:17:44;;;;;;;24.52;8.45;;;;;;;0.55;100.00;99316.13;6197710;28;20042;-72
2022/11/22 02:20:46;;;;;;;23.13;8.98;;;;;;;0.57;100.00;99313.47;6197971;28;20054;-72
2022/11/22 02:23:55;;;;;;;22.40;9.40;;;;;;;0.53;100.00;99317.91;6198017;28;20065;-72
2022/11/22 02:26:58;;;;;;;;;;;;;;;0.57;100.00;99334.97;6198538;28;20050;-72
2022/11/22 02:29:59;;;;;;;22.13;7.47;;;;;;;0.59;100.00;99329.75;6198059;28;19928;-72
2022/11/22 02:33:01;;;;;;;27.33;9.63;;;;;;;0.66;100.00;99326.06;6198066;28;20109;-72
2022/11/22 02:36:03;;;;;;;21.95;9.82;;;;;;;0.61;100.00;99321.06;6197574;28;20061;-72
2022/11/22 02:39:06;;;;;;;25.15;8.93;;;;;;;0.59;100.00;99319.41;6197948;28;20057;-73
2022/11/22 02:42:10;;;;;;;34.67;10.50;;;;;;;0.63;100.00;99308.06;6197611;28;20057;-72
2022/11/22 02:45:11;;;;;;;32.28;9.63;;;;;;;0.61;100.00;99302.13;6197427;28;20057;-73
2022/11/22 02:48:15;;;;;;;31.50;10.07;;;;;;;0.64;100.00;99296.84;6197670;28;20494;-72
2022/11/22 02:51:18;;;;;;;33.40;10.48;;;;;;;0.60;100.00;99296.13;6197518;28;20077;-72
2022/11/22 02:54:20;;;;;;;32.33;10.57;;;;;;;0.62;100.00;99285.72;6197351;28;20056;-72
2022/11/22 02:57:23;;;;;;;26.52;10.98;;;;;;;0.60;100.00;99277.19;6197764;28;20494;-73
2022/11/22 03:00:24;;;;;;;21.95;9.73;;;;;;;0.46;100.00;99275.94;6197308;28;20050;-73
2022/11/22 03:03:25;;;;;;;31.73;9.95;;;;;;;0.48;100.00;99265.53;6197663;28;20050;-73
2022/11/22 03:06:27;;;;;;;29.10;11.68;;;;;;;0.51;100.00;99268.00;6197141;28;20061;-72
2022/11/22 03:09:29;;;;;;;30.45;10.50;;;;;;;0.53;100.00;99265.38;6197583;28;20046;-72
2022/11/22 03:12:31;;;;;;;26.15;8.68;;;;;;;0.52;100.00;99253.34;6197299;28;20113;-73
2022/11/22 03:15:33;;;;;;;39.58;10.00;;;;;;;0.54;100.00;99261.88;6197146;28;20054;-72
2022/11/22 03:18:34;;;;;;;38.88;9.77;;;;;;;0.56;100.00;99262.69;6197785;28;20057;-73
2022/11/22 03:21:36;;;;;;;36.03;11.18;;;;;;;0.54;100.00;99269.63;6197055;28;20069;-73
2022/11/22 03:24:37;;;;;;;33.58;11.07;;;;;;;0.53;100.00;99268.78;6197089;28;20050;-72
2022/11/22 03:27:40;;;;;;;25.58;8.98;;;;;;;0.60;100.00;99269.44;6198531;28;20491;-73
2022/11/22 03:30:42;;;;;;;30.08;8.75;;;;;;;0.60;100.00;99267.69;6201895;28;20055;-73
2022/11/22 03:33:44;;;;;;;26.70;9.63;;;;;;;0.61;100.00;99255.59;6201718;28;20054;-72
2022/11/22 03:36:45;;;;;;;27.08;10.60;;;;;;;0.66;100.00;99257.09;6202104;28;20057;-73
2022/11/22 03:39:47;;;;;;;25.65;8.90;;;;;;;0.66;100.00;99254.53;6201774;28;20057;-73
2022/11/22 03:42:49;;;;;;;23.58;8.88;;;;;;;0.63;100.00;99256.38;6202062;28;20054;-72
2022/11/22 03:45:51;;;;;;;27.85;10.68;;;;;;;0.62;100.00;99259.84;6201390;28;20054;-72
2022/11/22 03:48:52;;;;;;;22.95;10.52;;;;;;;0.65;100.00;99262.34;6201726;28;20138;-73
2022/11/22 03:51:54;;;;;;;20.98;8.10;;;;;;;0.70;100.00;99260.44;6199039;28;20046;-72
2022/11/22 03:54:56;;;;;;;21.70;8.98;;;;;;;0.78;100.00;99254.97;6201272;28;20050;-73
2022/11/22 03:57:58;;;;;;;17.85;8.73;;;;;;;0.73;100.00;99252.56;6201679;28;20414;-73
2022/11/22 04:01:00;;;;;;;27.48;11.25;;;;;;;0.75;100.00;99243.00;6201188;28;20057;-72
2022/11/22 04:04:02;;;;;;;28.65;10.23;;;;;;;0.73;100.00;99248.25;6200850;28;20410;-72
2022/11/22 04:07:03;;;;;;;26.77;9.18;;;;;;;0.69;100.00;99246.66;6201541;28;20054;-73
2022/11/22 04:10:05;;;;;;;28.63;11.40;;;;;;;0.73;100.00;99252.56;6200786;28;20054;-73
2022/11/22 04:13:08;;;;;;;30.27;11.80;;;;;;;0.74;100.00;99256.84;6201477;28;20073;-72
2022/11/22 04:16:08;;;;;;;23.17;9.07;;;;;;;0.69;100.00;99256.16;6200705;28;20511;-73
2022/11/22 04:19:10;;;;;;;22.02;9.73;;;;;;;0.74;100.00;99269.75;6200986;28;20042;-73
2022/11/22 04:22:10;;;;;;;27.15;11.57;;;;;;;0.76;100.00;99266.19;6200750;28;20050;-73
2022/11/22 04:25:14;;;;;;;24.30;10.43;;;;;;;0.76;100.00;99271.38;6200432;28;20077;-73
2022/11/22 04:28:20;;;;;;;28.58;10.88;;;;;;;0.85;100.00;99275.34;6200886;28;20053;-74
2022/11/22 04:34:40;;;;;;;27.73;10.77;;;;;;;0.84;100.00;99281.44;6188184;28;20141;-72
2022/11/22 04:37:42;;;;;;;20.50;9.18;;;;;;;0.91;100.00;99280.31;6188373;28;20051;-73
2022/11/22 04:40:44;;;;;;;22.90;9.50;;;;;;;0.97;100.00;99280.09;6187127;28;20134;-72
2022/11/22 04:47:06;;;;;;;27.00;10.35;;;;;;;0.88;100.00;99272.66;6187973;28;20046;-73
2022/11/22 04:53:24;;;;;;;20.95;8.95;;;;;;;0.92;100.00;99276.81;6187661;28;20058;-73
2022/11/22 04:56:25;;;;;;;22.67;10.85;;;;;;;0.91;100.00;99267.38;6181944;28;20050;-72
2022/11/22 04:59:28;;;;;;;21.60;9.02;;;;;;;0.89;100.00;99265.75;6187680;28;20058;-73
2022/11/22 05:02:30;;;;;;;27.70;8.60;;;;;;;0.95;100.00;99263.78;6186409;28;20050;-73
2022/11/22 05:05:35;;;;;;;21.23;9.48;;;;;;;0.94;100.00;99258.66;6185876;28;20046;-73
2022/11/22 05:08:36;;;;;;;25.17;8.57;;;;;;;1.01;100.00;99257.53;6187319;28;20414;-73
2022/11/22 05:11:38;;;;;;;24.35;9.30;;;;;;;0.97;100.00;99264.56;6176599;28;20051;-73
2022/11/22 05:14:41;;;;;;;22.42;8.45;;;;;;;0.95;100.00;99270.69;6186808;28;20074;-73
2022/11/22 05:17:42;;;;;;;30.95;9.75;;;;;;;0.99;100.00;99275.69;6187651;28;20054;-73
2022/11/22 05:20:44;;;;;;;22.75;9.55;;;;;;;0.95;100.00;99281.91;6176102;28;20133;-73
2022/11/22 05:23:54;;;;;;;20.98;8.60;;;;;;;1.04;100.00;99293.59;6175225;28;20079;-73
2022/11/22 05:26:56;;;;;;;22.23;8.00;;;;;;;1.09;100.00;99299.47;6175753;28;20051;-73
2022/11/22 05:29:58;;;;;;;21.00;8.60;;;;;;;1.15;100.00;99295.81;6175001;28;20427;-72
2022/11/22 05:33:00;;;;;;;17.15;8.18;;;;;;;1.16;100.00;99292.31;6175422;28;20054;-74
2022/11/22 05:36:02;;;;;;;19.50;9.25;;;;;;;1.17;100.00;99296.59;6174805;28;20051;-73
2022/11/22 05:39:04;;;;;;;29.52;9.45;;;;;;;1.13;100.00;99290.69;6175303;28;20043;-73
2022/11/22 05:42:06;;;;;;;25.17;9.13;;;;;;;1.18;100.00;99299.13;6174833;28;20046;-72
2022/11/22 05:45:09;;;;;;;23.00;8.88;;;;;;;1.19;100.00;99290.47;6174565;28;20499;-73
2022/11/22 05:48:11;;;;;;;21.50;8.27;;;;;;;1.20;100.00;99293.88;6191514;28;20046;-73
2022/11/22 05:51:14;;;;;;;25.13;8.25;;;;;;;1.20;100.00;99293.88;6193891;28;20043;-74
2022/11/22 05:54:15;;;;;;;22.42;9.95;;;;;;;1.20;100.00;99297.31;6195165;28;20050;-73
2022/11/22 05:57:17;;;;;;;24.85;8.25;;;;;;;1.24;100.00;99298.88;6198945;28;20524;-72
2022/11/22 06:00:20;;;;;;;26.10;9.75;;;;;;;1.29;100.00;99297.88;6198321;28;20053;-73
2022/11/22 06:03:22;;;;;;;20.65;9.02;;;;;;;1.29;100.00;99297.88;6198708;28;20054;-73
2022/11/22 06:06:23;;;;;;;20.73;8.63;;;;;;;1.30;100.00;99300.38;6198246;28;20050;-73
2022/11/22 06:09:24;;;;;;;22.25;8.10;;;;;;;1.31;100.00;99298.63;6198417;28;20042;-72
2022/11/22 06:12:26;;;;;;;18.23;7.70;;;;;;;1.39;100.00;99304.34;6198070;28;20050;-73
2022/11/22 06:15:29;;;;;;;24.38;8.45;;;;;;;1.35;100.00;99297.63;6197739;28;20057;-72
2022/11/22 06:18:31;;;;;;;19.92;8.18;;;;;;;1.33;100.00;99291.66;6198537;28;20049;-74
2022/11/22 06:21:33;;;;;;;23.85;7.93;;;;;;;1.39;100.00;99294.00;6197950;28;20050;-73
2022/11/22 06:24:34;;;;;;;23.05;9.15;;;;;;;1.39;100.00;99297.44;6197972;28;20507;-73
2022/11/22 06:27:35;;;;;;;17.25;7.18;;;;;;;1.39;100.00;99294.00;6198205;28;20050;-73
2022/11/22 06:30:38;;;;;;;22.08;8.85;;;;;;;1.33;100.00;99291.66;6197868;28;20046;-71
2022/11/22 06:33:41;;;;;;;14.35;7.57;;;;;;;1.33;100.00;99302.03;6198176;28;20054;-70
2022/11/22 06:36:42;;;;;;;19.88;8.77;;;;;;;1.32;100.00;99301.19;6197911;28;20047;-71
2022/11/22 06:39:44;;;;;;;23.58;9.52;;;;;;;1.39;100.00;99296.59;6197591;28;20125;-73
2022/11/22 06:42:45;;;;;;;20.67;9.23;;;;;;;1.43;100.00;99301.59;6197710;28;20066;-72
2022/11/22 06:45:48;;;;;;;18.17;8.00;;;;;;;1.45;100.00;99298.94;6197306;28;20399;-73
2022/11/22 06:48:50;;;;;;;17.25;8.45;;;;;;;1.46;100.00;99300.66;6197872;28;20053;-72
2022/11/22 06:51:51;;;;;;;17.52;7.30;;;;;;;1.46;100.00;99288.53;6197544;28;20081;-73
2022/11/22 06:54:53;;;;;;;21.95;6.68;;;;;;;1.49;100.00;99298.75;6197061;28;20508;-71
2022/11/22 06:57:54;;;;;;;21.35;9.75;;;;;;;1.49;100.00;99303.94;6197856;28;20065;-72
2022/11/22 07:01:01;;;;;;;19.20;8.60;;;;;;;1.51;100.00;99307.31;6197310;28;20046;-71
2022/11/22 07:04:03;;;;;;;18.98;8.82;;;;;;;1.54;100.00;99314.09;6203962;28;20053;-72
2022/11/22 07:07:04;;;;;;;18.08;7.60;;;;;;;1.64;100.00;99312.00;6205680;28;20060;-72
2022/11/22 07:10:07;;;;;;;20.35;8.38;;;;;;;1.61;100.00;99312.97;6205261;28;20057;-71
2022/11/22 07:13:08;;;;;;;22.17;7.55;;;;;;;1.64;100.00;99312.00;6205634;28;20050;-71
2022/11/22 07:16:12;;;;;;;22.08;9.20;;;;;;;1.61;100.00;99320.72;6204119;28;20073;-71
2022/11/22 07:19:14;;;;;;;22.25;8.57;;;;;;;1.69;100.00;99333.38;6191830;28;20042;-72
2022/11/22 07:22:15;;;;;;;20.95;8.07;;;;;;;1.67;100.00;99338.59;6191645;28;20057;-71
2022/11/22 07:25:17;;;;;;;18.17;7.13;;;;;;;1.72;100.00;99356.56;6183452;28;20059;-72
2022/11/22 07:28:18;;;;;;;18.98;8.45;;;;;;;1.72;100.00;99354.81;6181408;28;20054;-71
2022/11/22 07:31:21;;;;;;;20.05;8.40;;;;;;;1.80;100.00;99357.09;6181180;28;20051;-72
2022/11/22 07:34:22;;;;;;;20.42;6.97;;;;;;;1.85;100.00;99365.53;6180860;28;20054;-71
2022/11/22 07:37:24;;;;;;;16.88;6.97;;;;;;;1.90;100.00;99367.94;6181500;28;20047;-72
2022/11/22 07:40:25;;;;;;;15.00;5.90;;;;;;;1.93;100.00;99365.22;6180766;28;20418;-72
2022/11/22 07:43:27;;;;;;;19.55;8.55;;;;;;;1.94;100.00;99370.34;6181317;28;20042;-71
2022/11/22 07:46:31;;;;;;;19.50;7.82;;;;;;;1.96;100.00;99371.13;6180595;28;20046;-72
2022/11/22 07:49:33;;;;;;;14.13;6.35;;;;;;;1.97;100.00;99369.38;6180979;28;20046;-71
2022/11/22 07:52:34;;;;;;;13.13;7.22;;;;;;;2.00;100.00;99383.06;6181142;28;20050;-72
2022/11/22 07:55:41;;;;;;;12.13;6.30;;;;;;;2.07;100.00;99391.41;6180504;28;20418;-70
2022/11/22 07:58:43;;;;;;;18.52;7.18;;;;;;;2.09;100.00;99388.75;6181006;28;20047;-71
2022/11/22 08:01:46;;;;;;;13.85;6.88;;;;;;;2.12;100.00;99388.63;6180601;28;20075;-72
2022/11/22 08:04:47;;;;;;;17.85;7.38;;;;;;;2.17;100.00;99384.94;6180563;28;20491;-72
2022/11/22 08:07:49;;;;;;;15.27;7.07;;;;;;;2.19;100.00;99377.13;6180808;28;20055;-72
2022/11/22 08:10:51;;;;;;;14.70;6.85;;;;;;;2.21;100.00;99377.91;6180558;28;20050;-72
2022/11/22 08:13:52;;;;;;;13.95;6.25;;;;;;;2.24;100.00;99385.56;6178198;28;20058;-71
2022/11/22 08:16:55;;;;;;;17.70;6.68;;;;;;;2.26;100.00;99387.16;6180032;28;20422;-70
2022/11/22 08:19:57;;;;;;;14.48;7.43;;;;;;;2.33;100.00;99392.94;6200888;28;20059;-71
2022/11/22 08:22:58;;;;;;;13.70;5.28;;;;;;;2.39;100.00;99397.03;6201282;28;20520;-71
2022/11/22 08:26:00;;;;;;;12.90;6.43;;;;;;;2.41;100.00;99396.06;6200675;28;20058;-71
2022/11/22 08:29:04;;;;;;;14.40;6.55;;;;;;;2.43;100.00;99386.47;6196495;28;20510;-71
2022/11/22 08:32:06;;;;;;;13.88;6.05;;;;;;;2.49;100.00;99386.19;6185995;28;20046;-71
2022/11/22 08:35:08;;;;;;;14.45;6.10;;;;;;;2.51;100.00;99396.53;6200015;28;20391;-71
2022/11/22 08:38:10;;;;;;;15.10;5.72;;;;;;;2.57;100.00;99398.84;6196679;28;20050;-71
2022/11/22 08:41:11;;;;;;;15.20;6.40;;;;;;;2.57;100.00;99406.63;6200011;28;20054;-71
2022/11/22 08:44:13;;;;;;;10.18;5.82;;;;;;;2.53;100.00;99399.88;6200445;28;20054;-71
2022/11/22 08:47:16;;;;;;;13.32;5.65;;;;;;;2.62;100.00;99414.22;6200004;28;20057;-71
2022/11/22 08:50:18;;;;;;;16.45;5.68;;;;;;;2.69;100.00;99411.31;6200040;28;20399;-70
2022/11/22 08:53:19;;;;;;;12.18;5.65;;;;;;;2.73;100.00;99407.69;6200267;28;20058;-71
2022/11/22 08:56:21;;;;;;;17.40;6.15;;;;;;;2.79;100.00;99410.00;6200053;28;20046;-71
2022/11/22 08:59:22;;;;;;;17.52;6.65;;;;;;;2.78;100.00;99410.06;6200167;28;20042;-71
2022/11/22 09:02:25;;;;;;;13.75;5.50;;;;;;;2.80;100.00;99405.66;6200116;28;20054;-71
2022/11/22 09:05:27;;;;;;;10.23;5.13;;;;;;;2.88;100.00;99419.13;6175492;28;20058;-70
2022/11/22 09:08:28;;;;;;;10.40;4.55;;;;;;;2.95;100.00;99422.28;6175772;28;20050;-70
2022/11/22 09:11:30;;;;;;;12.40;4.88;;;;;;;2.97;100.00;99418.75;6175381;28;20513;-70
2022/11/22 09:14:31;;;;;;;15.70;5.72;;;;;;;3.03;100.00;99420.22;6182248;28;20061;-71
2022/11/22 09:17:34;;;;;;;10.18;4.47;;;;;;;3.07;100.00;99420.94;6192675;28;20061;-71
2022/11/22 09:20:35;;;;;;;11.85;5.95;;;;;;;3.14;100.00;99427.56;6199065;28;20057;-71
2022/11/22 09:23:37;;;;;;;14.05;6.15;;;;;;;3.20;100.00;99435.91;6199609;28;20050;-71
2022/11/22 09:26:38;;;;;;;15.48;5.72;;;;;;;3.22;100.00;99444.44;6198795;28;20042;-71
2022/11/22 09:29:40;;;;;;;7.40;4.35;;;;;;;3.28;100.00;99451.97;6199025;28;20051;-72
2022/11/22 09:32:44;;;;;;;14.88;5.75;;;;;;;3.33;100.00;99451.78;6199431;28;20058;-71
2022/11/22 09:35:45;;;;;;;12.93;4.07;;;;;;;3.37;100.00;99449.91;6198620;28;20150;-72
2022/11/22 09:38:47;;;;;;;14.35;5.55;;;;;;;3.42;100.00;99442.75;6199203;28;20050;-71
2022/11/22 09:42:20;;;;;;;12.25;5.35;;;;;;;3.56;100.00;99445.53;6193539;28;20050;-72
2022/11/22 09:45:42;;;;;;;16.50;5.22;;;;;;;3.64;100.00;99440.84;6193269;28;20075;-73
2022/11/22 09:49:00;;;;;;;13.82;6.03;;;;;;;3.77;100.00;99448.91;6199262;28;20494;-71
2022/11/22 09:52:07;;;;;;;9.15;4.88;;;;;;;3.77;100.00;99448.91;6198643;28;20050;-72
2022/11/22 09:55:15;;;;;;;11.05;5.38;;;;;;;3.78;100.00;99448.84;6198605;28;20058;-71
2022/11/22 09:58:27;;;;;;;14.38;5.63;;;;;;;3.82;100.00;99449.56;6198629;28;20073;-71
2022/11/22 10:01:33;;;;;;;11.23;5.05;;;;;;;3.90;100.00;99460.41;6198603;28;20052;-72
2022/11/22 10:04:40;;;;;;;9.75;5.10;;;;;;;4.00;100.00;99463.44;6198028;28;20483;-71
2022/11/22 10:07:48;;;;;;;19.95;5.38;;;;;;;4.00;100.00;99453.88;6199087;28;20053;-71
2022/11/22 10:10:53;;;;;;;10.25;5.47;;;;;;;4.04;100.00;99447.63;6198194;28;20058;-71
2022/11/22 10:14:00;;;;;;;9.93;4.30;;;;;;;4.09;100.00;99447.41;6198353;28;20050;-72
2022/11/22 10:17:20;;;;;;;12.77;5.78;;;;;;;4.17;100.00;99453.06;6198454;28;20054;-72
2022/11/22 10:20:25;;;;;;;9.10;4.47;;;;;;;4.15;100.00;99446.28;6198096;28;20491;-72
2022/11/22 10:23:27;;;;;;;11.70;4.68;;;;;;;4.16;100.00;99443.59;6198303;28;20058;-71
2022/11/22 10:26:31;;;;;;;10.48;4.50;;;;;;;4.23;100.00;99441.56;6197931;28;20054;-72
2022/11/22 10:29:42;;;;;;;8.93;4.97;;;;;;;4.21;100.00;99433.81;6198335;28;20053;-72
2022/11/22 10:32:55;;;;;;;12.48;4.68;;;;;;;4.30;100.00;99445.53;6198086;28;20069;-71
2022/11/22 10:36:11;;;;;;;13.63;5.25;;;;;;;4.43;100.00;99432.75;6197694;28;20061;-72
2022/11/22 10:39:19;;;;;;;8.02;3.90;;;;;;;4.52;100.00;99433.16;6197294;28;20061;-72
2022/11/22 10:42:50;;;;;;;8.10;3.67;;;;;;;4.58;100.00;99435.44;6197598;28;20442;-71
2022/11/22 10:46:01;;;;;;;6.28;3.60;;;;;;;4.68;100.00;99435.84;6197431;28;20054;-71
2022/11/22 10:49:13;;;;;;;8.65;4.38;;;;;;;4.81;100.00;99434.31;6197949;28;20053;-72
2022/11/22 10:52:26;;;;;;;7.45;3.55;;;;;;;4.86;100.00;99433.22;6197501;28;20111;-71
2022/11/22 10:55:41;;;;;;;9.73;4.53;;;;;;;4.93;100.00;99424.19;6197442;28;20050;-72
2022/11/22 10:58:55;;;;;;;9.38;4.43;;;;;;;5.01;100.00;99412.44;6197734;28;20407;-73
2022/11/22 11:02:03;;;;;;;7.80;3.67;;;;;;;5.15;100.00;99419.53;6197494;28;20050;-72
2022/11/22 11:05:10;;;;;;;11.73;4.18;;;;;;;5.18;100.00;99416.78;6197298;28;20055;-72
2022/11/22 11:08:16;;;;;;;8.70;3.85;;;;;;;5.31;100.00;99420.44;6197580;28;20130;-72
2022/11/22 11:11:17;;;;;;;11.32;3.85;;;;;;;5.41;100.00;99425.16;6197119;28;20062;-72
2022/11/22 11:14:27;;;;;;;6.43;4.22;;;;;;;5.51;100.00;99411.53;6197180;28;20076;-72
2022/11/22 11:17:33;;;;;;;8.32;3.83;;;;;;;5.57;100.00;99403.38;6197337;28;20050;-73
2022/11/22 11:20:38;;;;;;;7.55;3.50;;;;;;;5.72;100.00;99406.06;6197427;28;20046;-71
2022/11/22 11:23:41;;;;;;;10.63;4.00;;;;;;;5.78;100.00;99408.34;6197497;28;20058;-72
2022/11/22 11:26:51;;;;;;;10.50;3.53;;;;;;;5.73;100.00;99408.59;6197730;28;20052;-72
2022/11/22 11:30:00;;;;;;;11.20;3.72;;;;;;;5.72;100.00;99413.88;6196817;28;20105;-72
2022/11/22 11:33:16;;;;;;;9.27;3.75;;;;;;;5.69;100.00;99406.25;6197391;28;20418;-73
2022/11/22 11:36:20;;;;;;;10.23;3.90;;;;;;;5.66;100.00;99406.41;6196592;28;20065;-73
2022/11/22 11:39:27;;;;;;;8.02;3.63;;;;;;;5.71;100.00;99407.84;6197336;28;20053;-72
2022/11/22 11:42:30;;;;;;;8.32;3.72;;;;;;;5.78;100.00;99400.53;6196797;28;20073;-72
2022/11/22 11:45:32;;;;;;;12.45;3.53;;;;;;;5.76;100.00;99404.97;6196591;28;20049;-73
2022/11/22 11:48:37;;;;;;;8.35;3.95;;;;;;;5.90;100.00;99404.22;6198020;28;20092;-72
2022/11/22 11:51:41;;;;;;;8.20;3.45;;;;;;;6.01;100.00;99405.34;6199952;28;20443;-72
2022/11/22 11:54:46;;;;;;;11.35;3.10;;;;;;;6.03;100.00;99405.25;6190703;28;20410;-71
2022/11/22 11:57:49;;;;;;;7.43;2.83;;;;;;;6.06;100.00;99415.50;6202780;28;20046;-71
2022/11/22 12:00:51;;;;;;;6.45;3.35;;;;;;;6.21;100.00;99416.41;6200967;28;20399;-71
2022/11/22 12:04:00;;;;;;;9.43;3.75;;;;;;;6.37;100.00;99409.41;6200775;28;20418;-72
2022/11/22 12:07:02;;;;;;;;;;;;;;;6.42;100.00;99416.97;6201933;28;20050;-71
2022/11/22 12:10:28;;;;;;;7.07;2.35;;;;;;;6.37;100.00;99422.44;6200745;28;19941;-71
2022/11/22 12:13:36;;;;;;;10.80;2.53;;;;;;;6.43;100.00;99409.03;6201021;28;20061;-73
2022/11/22 12:16:42;;;;;;;5.10;2.60;;;;;;;6.52;100.00;99410.28;6200870;28;20053;-71
2022/11/22 12:19:54;;;;;;;3.65;2.45;;;;;;;6.49;100.00;99407.81;6200922;28;20042;-71
2022/11/22 12:23:07;;;;;;;7.22;2.30;;;;;;;6.56;100.00;99406.56;6201296;28;20070;-71
2022/11/22 12:26:11;;;;;;;7.68;2.38;;;;;;;6.52;100.00;99405.88;6200393;28;20123;-71
2022/11/22 12:29:15;;;;;;;4.70;2.40;;;;;;;6.40;100.00;99403.13;6198261;28;20133;-71
2022/11/22 12:32:21;;;;;;;4.10;2.85;;;;;;;6.37;100.00;99401.56;6199894;28;20054;-71
2022/11/22 12:35:26;;;;;;;6.68;2.38;;;;;;;6.40;100.00;99393.53;6200191;28;20422;-73
2022/11/22 12:38:32;;;;;;;4.40;2.60;;;;;;;6.46;100.00;99406.25;6200498;28;20054;-71
2022/11/22 12:41:36;;;;;;;5.40;1.98;;;;;;;6.45;100.00;99411.53;6200164;28;20069;-71
2022/11/22 12:44:44;;;;;;;8.80;2.40;;;;;;;6.38;100.00;99420.66;6200053;28;20060;-71
2022/11/22 12:47:47;;;;;;;6.53;2.75;;;;;;;6.38;100.00;99420.66;6200522;28;20502;-71
2022/11/22 12:50:52;;;;;;;6.30;2.00;;;;;;;6.35;100.00;99424.28;6200040;28;20057;-71
2022/11/22 12:54:00;;;;;;;4.07;2.03;;;;;;;6.34;100.00;99426.06;6200069;28;20054;-71
2022/11/22 12:57:10;;;;;;;7.18;2.65;;;;;;;6.34;100.00;99436.50;6200323;28;20050;-71
2022/11/22 13:00:15;;;;;;;7.43;2.72;;;;;;;6.29;100.00;99433.31;6195381;28;20046;-71
2022/11/22 13:03:23;;;;;;;3.70;2.13;;;;;;;6.26;100.00;99430.84;6200085;28;20061;-71
2022/11/22 13:06:32;;;;;;;5.70;2.45;;;;;;;6.27;100.00;99431.72;6199449;28;20046;-71
2022/11/22 13:09:37;;;;;;;4.70;2.05;;;;;;;6.28;100.00;99420.34;6199969;28;20066;-71
2022/11/22 13:12:43;;;;;;;5.47;3.10;;;;;;;6.27;100.00;99419.53;6199964;28;20050;-71
2022/11/22 13:15:46;;;;;;;4.95;2.45;;;;;;;6.23;100.00;99412.78;6199062;28;20110;-73
2022/11/22 13:18:54;;;;;;;3.63;2.10;;;;;;;6.23;100.00;99412.78;6199679;28;20161;-73
2022/11/22 13:22:15;;;;;;;2.92;1.60;;;;;;;6.19;100.00;99403.47;6199297;28;20426;-72
2022/11/22 13:25:40;;;;;;;3.10;1.80;;;;;;;6.19;100.00;99413.88;6199439;28;20071;-73
2022/11/22 13:28:44;;;;;;;6.28;3.13;;;;;;;6.14;100.00;99396.81;6190642;28;20406;-72
2022/11/22 13:32:07;;;;;;;7.85;2.33;;;;;;;6.10;100.00;99398.75;6199518;28;20046;-77
2022/11/22 13:35:25;;;;;;;3.15;1.48;;;;;;;6.08;100.00;99393.63;6199144;28;20082;-75
2022/11/22 13:38:26;;;;;;;8.18;1.92;;;;;;;6.04;100.00;99386.91;6199751;28;20056;-75
2022/11/22 13:41:36;;;;;;;3.20;1.58;;;;;;;6.01;100.00;99386.25;6199231;28;20050;-75
2022/11/22 13:45:06;;;;;;;2.92;1.80;;;;;;;6.00;100.00;99385.41;6198853;28;20057;-75
2022/11/22 13:48:09;;;;;;;5.38;2.03;;;;;;;5.99;100.00;99382.88;6197281;28;20065;-75
2022/11/22 13:51:12;;;;;;;3.50;1.45;;;;;;;5.95;100.00;99390.03;6198699;28;20046;-75
2022/11/22 13:54:59;;;;;;;2.78;1.80;;;;;;;5.90;100.00;99399.81;6198733;28;20050;-75
2022/11/22 13:58:44;;;;;;;6.97;2.28;;;;;;;5.85;100.00;99401.84;6111538;29;20547;-75
2022/11/22 14:01:58;;;;;;;5.80;1.98;;;;;;;5.80;100.00;99409.09;6198337;28;20133;-75
2022/11/22 14:04:59;;;;;;;3.22;1.80;;;;;;;5.75;100.00;99408.50;6198337;28;20430;-75
2022/11/22 14:08:03;;;;;;;2.58;1.27;;;;;;;5.70;100.00;99408.75;6198579;28;20502;-75
2022/11/22 14:11:29;;;;;;;4.30;1.50;;;;;;;5.65;100.00;99410.78;6198413;28;20046;-75
2022/11/22 14:14:38;;;;;;;2.33;1.60;;;;;;;5.70;100.00;99408.75;6197637;28;20058;-75
2022/11/22 14:17:52;;;;;;;7.03;1.25;;;;;;;5.67;100.00;99405.47;6199086;28;20046;-75
2022/11/22 14:21:02;;;;;;;4.10;1.40;;;;;;;5.63;100.00;99407.41;6198066;28;20092;-74
2022/11/22 14:24:14;;;;;;;1.27;1.05;;;;;;;5.58;100.00;99414.63;6197942;28;20057;-75
2022/11/22 14:27:28;;;;;;;4.18;1.25;;;;;;;5.49;100.00;99418.56;6198092;28;20060;-75
2022/11/22 14:30:40;;;;;;;7.28;1.60;;;;;;;5.43;100.00;99412.88;6197818;28;20046;-75